Albany, Minnesota
Current Conditions -  °F | °C
As of 12:12 PM on Monday 26 Jan 2015 (Local Time) from KD39 Reporting Station
Broken Clouds Broken Clouds  
Wind Chill: 30°   Ceiling: 4200
Heat Index: 38°   Visibility: 10mi
Dew Point: 32°   Wind: 14mph
Humidity: 80%   Direction: 290°WNW
Pressure: 29.75"   Gusts: 20mph
Location:  45.63°N, 94.57°W
Report Text: KD39 261812Z AUTO 29012G17KT 10SM BKN042 03/00 A2975 RMK AO2 T00330001
Loading
Personal Weather Stations






























Interactive Weather Map New forecast layout! Learn more

10-Day Weather Forecast

Advertisements
Track Severe Weather on mobile